Terminal Aerodrome Forecast
Issued by NWS Jackson, MS

Home | Current Version | Previous Version | Text Only | Print | Product List | Glossary On
Versions: 1 2 3 4 5 6 7 8 9 10 11 12 13 14 15 16 17 18
924
FTUS44 KJAN 261122
TAFGLH
TAF
KGLH 261122Z 2612/2712 20010KT P6SM SKC
     FM261500 19018G27KT P6SM FEW250
     FM270100 19013KT P6SM SKC
     FM270600 20010KT P6SM OVC025
     FM270900 19010KT P6SM OVC015=

USA.gov is the U.S. government's official web portal to all federal, state and local government web resources and services.